createdAt,value
2022-12-13T00:01:28.913Z,19.58
2022-12-13T00:03:57.853Z,15.52
2022-12-13T00:06:25.501Z,18.42
2022-12-13T00:08:53.634Z,20.08
2022-12-13T00:11:21.295Z,23.92
2022-12-13T00:13:48.621Z,34.00
2022-12-13T00:16:18.821Z,22.35
2022-12-13T00:18:55.576Z,19.17
2022-12-13T00:21:26.006Z,16.58
2022-12-13T00:23:53.481Z,16.95
2022-12-13T00:26:26.201Z,23.55
2022-12-13T00:28:54.261Z,23.15
2022-12-13T00:34:10.824Z,18.73
2022-12-13T00:36:37.859Z,17.40
2022-12-13T00:39:05.127Z,21.17
2022-12-13T00:41:34.414Z,21.02
2022-12-13T00:44:02.276Z,23.73
2022-12-13T00:46:30.014Z,19.95
2022-12-13T00:48:59.290Z,19.38
2022-12-13T00:51:29.316Z,16.70
2022-12-13T00:53:56.986Z,23.20
2022-12-13T00:56:27.217Z,22.10
2022-12-13T00:58:55.335Z,19.90
2022-12-13T01:01:25.953Z,18.80
2022-12-13T01:03:58.017Z,19.55
2022-12-13T01:06:39.126Z,17.08
2022-12-13T01:09:12.529Z,18.58
2022-12-13T01:11:39.555Z,18.77
2022-12-13T01:14:06.567Z,19.00
2022-12-13T01:16:33.856Z,20.58
2022-12-13T01:19:01.209Z,19.00
2022-12-13T01:21:29.815Z,19.30
2022-12-13T01:24:05.200Z,26.02
2022-12-13T01:26:32.826Z,24.52
2022-12-13T01:29:00.562Z,21.27
2022-12-13T01:31:28.171Z,23.05
2022-12-13T01:33:55.377Z,23.05
2022-12-13T01:36:27.450Z,20.80
2022-12-13T01:41:28.543Z,19.42
2022-12-13T01:44:04.906Z,24.70
2022-12-13T01:46:36.212Z,23.45
2022-12-13T01:49:19.396Z,19.52
2022-12-13T01:51:57.834Z,19.25
2022-12-13T01:54:34.093Z,18.38
2022-12-13T01:57:06.035Z,25.40
2022-12-13T01:59:36.556Z,21.27
2022-12-13T02:02:05.190Z,17.35
2022-12-13T02:04:55.510Z,20.30
2022-12-13T02:07:27.777Z,19.05
2022-12-13T02:10:00.346Z,14.55
2022-12-13T02:12:30.871Z,21.85
2022-12-13T02:15:07.411Z,25.02
2022-12-13T02:17:55.325Z,23.85
2022-12-13T02:20:57.117Z,31.40
2022-12-13T02:23:24.119Z,35.42
2022-12-13T02:26:07.240Z,31.08
2022-12-13T02:29:00.429Z,34.17
2022-12-13T02:31:36.501Z,25.95
2022-12-13T02:34:10.942Z,32.42
2022-12-13T02:36:50.796Z,31.73
2022-12-13T02:39:30.728Z,27.70
2022-12-13T02:42:06.040Z,32.83
2022-12-13T02:44:43.225Z,34.60
2022-12-13T02:47:32.666Z,23.42
2022-12-13T02:50:05.901Z,34.47
2022-12-13T02:52:33.815Z,25.13
2022-12-13T02:55:06.297Z,26.63
2022-12-13T02:57:39.301Z,29.10
2022-12-13T03:00:09.229Z,21.75
2022-12-13T03:02:51.303Z,28.02
2022-12-13T03:05:46.003Z,27.30
2022-12-13T03:08:38.962Z,25.17
2022-12-13T03:11:13.724Z,24.00
2022-12-13T03:14:20.214Z,27.55
2022-12-13T03:16:52.909Z,22.60
2022-12-13T03:19:20.318Z,23.70
2022-12-13T03:21:50.146Z,23.98
2022-12-13T03:24:18.839Z,24.02
2022-12-13T03:26:47.246Z,28.13
2022-12-13T03:29:14.490Z,25.63
2022-12-13T03:31:52.363Z,25.40
2022-12-13T03:34:22.381Z,24.30
2022-12-13T03:36:50.006Z,24.65
2022-12-13T03:39:17.135Z,21.52
2022-12-13T03:41:44.482Z,24.65
2022-12-13T03:44:11.646Z,18.88
2022-12-13T03:46:39.016Z,22.05
2022-12-13T03:49:06.100Z,16.58
2022-12-13T03:51:33.289Z,25.48
2022-12-13T03:54:00.287Z,22.23
2022-12-13T03:56:27.333Z,16.88
2022-12-13T03:58:54.350Z,30.27
2022-12-13T04:01:22.329Z,22.65
2022-12-13T04:03:49.425Z,22.88
2022-12-13T04:06:22.468Z,23.65
2022-12-13T04:08:51.940Z,40.95
2022-12-13T04:11:42.694Z,35.72
2022-12-13T04:14:12.006Z,35.10
2022-12-13T04:16:39.364Z,30.85
2022-12-13T04:19:06.545Z,35.13
2022-12-13T04:21:33.637Z,42.40
2022-12-13T04:24:01.454Z,29.73
2022-12-13T04:26:29.188Z,33.58
2022-12-13T04:28:56.425Z,32.85
2022-12-13T04:31:23.791Z,29.42
2022-12-13T04:33:51.267Z,30.25
2022-12-13T04:36:30.842Z,25.00
2022-12-13T04:39:21.948Z,25.35
2022-12-13T04:41:51.889Z,28.73
2022-12-13T04:44:27.866Z,30.75
2022-12-13T04:47:01.175Z,25.55
2022-12-13T04:49:30.335Z,32.05
2022-12-13T04:52:01.158Z,26.73
2022-12-13T04:54:36.379Z,21.25
2022-12-13T04:57:06.735Z,26.65
2022-12-13T04:59:33.874Z,26.50
2022-12-13T05:02:00.873Z,31.17
2022-12-13T05:04:32.750Z,28.20
2022-12-13T05:07:01.272Z,34.53
2022-12-13T05:09:28.360Z,32.28
2022-12-13T05:12:01.057Z,27.77
2022-12-13T05:14:31.465Z,32.78
2022-12-13T05:16:59.999Z,28.95
2022-12-13T05:19:31.280Z,33.25
2022-12-13T05:22:01.573Z,35.30
2022-12-13T05:24:30.547Z,29.83
2022-12-13T05:26:58.766Z,25.92
2022-12-13T05:29:27.635Z,31.98
2022-12-13T05:31:54.759Z,31.73
2022-12-13T05:34:21.872Z,39.53
2022-12-13T05:36:48.855Z,40.20
2022-12-13T05:39:27.963Z,37.53
2022-12-13T05:42:02.355Z,34.28
2022-12-13T05:44:31.545Z,33.85
2022-12-13T05:47:02.249Z,35.08
2022-12-13T05:49:31.095Z,33.97
2022-12-13T05:51:58.447Z,44.60
2022-12-13T05:54:25.502Z,47.80
2022-12-13T05:56:52.670Z,43.90
2022-12-13T05:59:19.659Z,32.45
2022-12-13T06:01:46.694Z,38.67
2022-12-13T06:04:22.444Z,35.08
2022-12-13T06:06:51.510Z,32.10
2022-12-13T06:09:19.287Z,36.45
2022-12-13T06:11:46.266Z,36.38
2022-12-13T06:14:22.411Z,34.80
2022-12-13T06:16:51.833Z,79.80
2022-12-13T06:19:19.991Z,56.72
2022-12-13T06:21:46.971Z,51.80
2022-12-13T06:24:19.140Z,45.80
2022-12-13T06:26:46.520Z,40.42
2022-12-13T06:29:23.053Z,48.65
2022-12-13T06:32:02.188Z,54.00
2022-12-13T06:34:32.419Z,40.28
2022-12-13T06:37:00.717Z,34.83
2022-12-13T06:39:32.996Z,41.17
2022-12-13T06:42:06.434Z,91.35
2022-12-13T06:44:34.432Z,153.93
2022-12-13T06:47:11.864Z,117.93
2022-12-13T06:49:41.745Z,85.80
2022-12-13T06:52:11.993Z,61.35
2022-12-13T06:54:39.464Z,87.78
2022-12-13T06:57:06.893Z,93.95
2022-12-13T06:59:34.097Z,93.10
2022-12-13T07:02:03.560Z,76.03
2022-12-13T07:04:32.255Z,80.95
2022-12-13T07:07:01.080Z,74.32
2022-12-13T07:09:31.120Z,49.50
2022-12-13T07:11:58.729Z,48.15
2022-12-13T07:14:26.297Z,39.78
2022-12-13T07:16:57.950Z,39.67
2022-12-13T07:19:35.360Z,46.70
2022-12-13T07:22:06.088Z,32.85
2022-12-13T07:24:35.249Z,28.98
2022-12-13T07:27:03.730Z,34.03
2022-12-13T07:29:31.185Z,35.75
2022-12-13T07:32:01.852Z,41.95
2022-12-13T07:34:30.693Z,63.53
2022-12-13T07:36:58.198Z,68.93
2022-12-13T07:39:26.370Z,52.10
2022-12-13T07:41:57.426Z,58.28
2022-12-13T07:44:25.267Z,56.30
2022-12-13T07:46:53.081Z,52.78
2022-12-13T07:49:20.678Z,42.08
2022-12-13T07:51:48.232Z,58.45
2022-12-13T07:54:15.611Z,56.70
2022-12-13T07:56:42.965Z,71.38
2022-12-13T07:59:11.019Z,46.28
2022-12-13T08:01:38.456Z,78.95
2022-12-13T08:04:06.189Z,132.00
2022-12-13T08:06:40.246Z,51.05
2022-12-13T08:09:07.798Z,56.20
2022-12-13T08:11:35.171Z,52.92
2022-12-13T08:14:04.794Z,60.95
2022-12-13T08:16:32.408Z,42.67
2022-12-13T08:19:01.980Z,47.83
2022-12-13T08:22:01.758Z,32.53
2022-12-13T08:24:31.341Z,37.08
2022-12-13T08:27:01.710Z,35.85
2022-12-13T08:29:34.478Z,41.13
2022-12-13T08:32:21.272Z,35.30
2022-12-13T08:44:39.454Z,31.85
2022-12-13T08:47:10.955Z,82.35
2022-12-13T08:50:04.722Z,37.50
2022-12-13T09:17:24.704Z,53.13
2022-12-13T09:19:57.834Z,38.40
2022-12-13T09:22:33.797Z,32.22
2022-12-13T09:25:06.389Z,41.47
2022-12-13T09:27:43.465Z,31.58
2022-12-13T09:30:13.906Z,24.08
2022-12-13T09:32:41.907Z,29.08
2022-12-13T09:35:10.430Z,22.52
2022-12-13T09:37:42.541Z,21.95
2022-12-13T09:40:25.770Z,29.58
2022-12-13T09:43:12.629Z,27.13
2022-12-13T09:59:04.621Z,20.30
2022-12-13T10:36:50.585Z,12.73
2022-12-13T10:39:42.531Z,13.38
2022-12-13T10:43:01.551Z,9.50
2022-12-13T10:59:59.612Z,16.63
2022-12-13T11:11:59.292Z,13.93
2022-12-13T11:14:33.082Z,13.88
2022-12-13T11:17:09.158Z,14.50
2022-12-13T11:19:56.937Z,13.70
2022-12-13T11:25:42.821Z,14.60
2022-12-13T11:28:32.245Z,14.52
2022-12-13T11:41:55.838Z,13.88
2022-12-13T11:44:59.138Z,17.38
2022-12-13T11:51:00.641Z,14.18
2022-12-13T12:01:13.523Z,13.35
2022-12-13T12:04:30.843Z,11.50
2022-12-13T12:35:24.526Z,13.38
2022-12-13T12:42:14.810Z,14.00
2022-12-13T12:44:50.661Z,18.88
2022-12-13T12:51:00.956Z,17.33
2022-12-13T12:53:45.477Z,13.63
2022-12-13T12:56:34.686Z,18.98
2022-12-13T12:59:48.184Z,17.30
2022-12-13T13:02:31.033Z,17.80
2022-12-13T13:05:07.204Z,15.80
2022-12-13T13:07:58.407Z,13.93
2022-12-13T13:20:47.521Z,11.77
2022-12-13T13:32:41.304Z,12.43
2022-12-13T13:35:50.188Z,13.85
2022-12-13T13:38:47.672Z,15.65
2022-12-13T13:44:46.382Z,12.52
2022-12-13T13:54:01.000Z,16.65
2022-12-13T14:01:11.097Z,16.65
2022-12-13T14:04:03.081Z,12.00
2022-12-13T14:06:48.416Z,14.90
2022-12-13T14:09:59.145Z,18.33
2022-12-13T14:12:53.715Z,15.60
2022-12-13T14:16:20.323Z,19.95
2022-12-13T14:19:08.200Z,13.48
2022-12-13T14:21:57.153Z,12.25
2022-12-13T14:25:03.272Z,12.23
2022-12-13T14:27:47.675Z,15.10
2022-12-13T14:30:27.871Z,18.58
2022-12-13T14:33:10.943Z,14.77
2022-12-13T14:36:16.102Z,20.65
2022-12-13T14:39:16.261Z,14.85
2022-12-13T14:41:58.835Z,16.58
2022-12-13T14:44:50.711Z,15.57
2022-12-13T14:47:19.154Z,16.38
2022-12-13T14:49:54.192Z,21.52
2022-12-13T14:52:27.911Z,26.92
2022-12-13T14:55:01.582Z,19.10
2022-12-13T14:57:32.182Z,20.30
2022-12-13T15:00:03.315Z,17.83
2022-12-13T15:02:37.639Z,20.08
2022-12-13T15:05:09.046Z,23.02
2022-12-13T15:07:45.431Z,24.90
2022-12-13T15:10:20.664Z,28.85
2022-12-13T15:12:49.738Z,24.20
2022-12-13T15:15:33.155Z,19.05
2022-12-13T15:18:16.370Z,23.10
2022-12-13T15:20:46.694Z,21.27
2022-12-13T15:23:33.294Z,24.00
2022-12-13T15:26:28.254Z,62.35
2022-12-13T15:29:10.243Z,114.28
2022-12-13T15:31:38.928Z,83.38
2022-12-13T15:34:30.815Z,59.15
2022-12-13T15:37:01.037Z,81.40
2022-12-13T15:39:28.892Z,248.23
2022-12-13T15:41:56.777Z,245.07
2022-12-13T15:44:38.622Z,204.35
2022-12-13T15:47:12.402Z,67.50
2022-12-13T15:50:05.321Z,49.08
2022-12-13T15:52:41.360Z,57.35
2022-12-13T15:55:08.464Z,36.75
2022-12-13T15:57:49.296Z,42.58
2022-12-13T16:00:17.010Z,43.08
2022-12-13T16:02:56.162Z,58.70
2022-12-13T16:05:35.123Z,76.75
2022-12-13T16:08:14.286Z,42.88
2022-12-13T16:10:50.340Z,43.47
2022-12-13T16:13:30.236Z,43.60
2022-12-13T16:16:28.260Z,46.33
2022-12-13T16:18:57.858Z,32.38
2022-12-13T16:21:25.962Z,31.58
2022-12-13T16:23:53.340Z,31.70
2022-12-13T16:26:28.749Z,42.20
2022-12-13T16:29:00.279Z,35.58
2022-12-13T16:31:35.807Z,48.65
2022-12-13T16:34:05.198Z,37.85
2022-12-13T16:36:32.491Z,42.33
2022-12-13T16:38:59.587Z,40.45
2022-12-13T16:41:29.790Z,40.40
2022-12-13T16:44:00.496Z,40.78
2022-12-13T16:47:15.287Z,46.97
2022-12-13T16:49:21.778Z,42.70
2022-12-13T16:51:49.499Z,52.20
2022-12-13T16:54:18.754Z,42.63
2022-12-13T16:56:46.652Z,50.30
2022-12-13T16:59:18.743Z,42.97
2022-12-13T17:01:47.702Z,49.33
2022-12-13T17:04:21.128Z,52.55
2022-12-13T17:06:54.954Z,48.17
2022-12-13T17:09:25.650Z,38.20
2022-12-13T17:11:53.448Z,37.53
2022-12-13T17:14:21.521Z,39.28
2022-12-13T17:16:48.871Z,46.67
2022-12-13T17:19:17.939Z,47.90
2022-12-13T17:21:45.473Z,62.17
2022-12-13T17:24:12.826Z,53.13
2022-12-13T17:26:41.604Z,49.47
2022-12-13T17:29:25.568Z,52.15
2022-12-13T17:31:53.953Z,47.30
2022-12-13T17:34:21.819Z,46.83
2022-12-13T17:36:50.515Z,54.90
2022-12-13T17:39:18.564Z,54.58
2022-12-13T17:41:54.433Z,50.38
2022-12-13T17:44:24.606Z,51.00
2022-12-13T17:46:54.909Z,53.53
2022-12-13T17:49:23.359Z,42.53
2022-12-13T17:51:54.257Z,42.83
2022-12-13T17:54:27.367Z,46.22
2022-12-13T17:56:55.637Z,49.45
2022-12-13T17:59:23.777Z,54.03
2022-12-13T18:01:51.876Z,43.17
2022-12-13T18:04:19.401Z,38.78
2022-12-13T18:06:46.629Z,49.70
2022-12-13T18:09:14.384Z,49.08
2022-12-13T18:11:43.803Z,53.60
2022-12-13T18:14:11.565Z,74.78
2022-12-13T18:16:40.179Z,104.85
2022-12-13T18:19:10.805Z,148.35
2022-12-13T18:21:39.065Z,126.47
2022-12-13T18:24:07.166Z,133.73
2022-12-13T18:26:36.368Z,152.43
2022-12-13T18:29:06.920Z,175.80
2022-12-13T18:31:34.861Z,179.77
2022-12-13T18:34:05.662Z,225.73
2022-12-13T18:36:36.034Z,257.23
2022-12-13T18:39:04.703Z,229.43
2022-12-13T18:41:33.811Z,218.65
2022-12-13T18:44:05.367Z,225.80
2022-12-13T18:46:35.611Z,197.68
2022-12-13T18:49:07.620Z,193.23
2022-12-13T18:51:36.818Z,180.02
2022-12-13T18:54:04.601Z,191.55
2022-12-13T18:56:33.011Z,186.68
2022-12-13T18:59:00.849Z,194.13
2022-12-13T19:01:31.248Z,171.82
2022-12-13T19:04:01.154Z,178.52
2022-12-13T19:06:29.171Z,204.68
2022-12-13T19:09:00.888Z,186.25
2022-12-13T19:11:29.855Z,192.45
2022-12-13T19:13:57.910Z,188.00
2022-12-13T19:16:27.202Z,201.15
2022-12-13T19:18:55.255Z,198.00
2022-12-13T19:21:23.652Z,184.15
2022-12-13T19:23:57.566Z,206.50
2022-12-13T19:26:28.718Z,207.10
2022-12-13T19:28:58.991Z,205.68
2022-12-13T19:31:32.191Z,218.18
2022-12-13T19:34:03.153Z,214.23
2022-12-13T19:36:35.674Z,209.27
2022-12-13T19:39:05.255Z,205.38
2022-12-13T19:41:34.070Z,223.65
2022-12-13T19:44:08.659Z,219.73
2022-12-13T19:46:36.663Z,209.40
2022-12-13T19:49:07.168Z,217.52
2022-12-13T19:51:39.607Z,216.60
2022-12-13T19:54:07.751Z,211.45
2022-12-13T19:56:36.442Z,221.85
2022-12-13T19:59:05.979Z,206.80
2022-12-13T20:01:36.213Z,235.85
2022-12-13T20:04:06.371Z,216.82
2022-12-13T20:06:35.874Z,227.13
2022-12-13T20:09:06.835Z,192.93
2022-12-13T20:11:35.162Z,203.00
2022-12-13T20:14:03.399Z,199.27
2022-12-13T20:16:33.334Z,214.25
2022-12-13T20:19:02.169Z,223.10
2022-12-13T20:21:31.243Z,232.82
2022-12-13T20:23:59.827Z,222.85
2022-12-13T20:26:31.384Z,210.35
2022-12-13T20:29:01.267Z,222.48
2022-12-13T20:31:32.528Z,198.63
2022-12-13T20:34:04.067Z,205.85
2022-12-13T20:36:32.604Z,215.27
2022-12-13T20:39:03.346Z,193.18
2022-12-13T20:41:34.719Z,189.57
2022-12-13T20:44:05.182Z,197.27
2022-12-13T20:46:34.180Z,206.90
2022-12-13T20:49:05.090Z,186.07
2022-12-13T20:51:35.621Z,194.82
2022-12-13T20:54:04.180Z,191.57
2022-12-13T20:56:35.714Z,187.20
2022-12-13T20:59:05.510Z,183.68
2022-12-13T21:01:36.568Z,190.68
2022-12-13T21:04:06.565Z,192.70
2022-12-13T21:06:38.313Z,183.57
2022-12-13T21:09:07.182Z,174.05
2022-12-13T21:11:37.770Z,208.82
2022-12-13T21:14:10.074Z,184.20
2022-12-13T21:17:02.233Z,163.13
2022-12-13T21:19:38.986Z,165.93
2022-12-13T21:22:07.971Z,183.50
2022-12-13T21:24:35.321Z,141.85
2022-12-13T21:27:02.826Z,155.32
2022-12-13T21:29:30.289Z,143.65
2022-12-13T21:31:57.481Z,146.90
2022-12-13T21:34:24.898Z,139.18
2022-12-13T21:36:53.018Z,173.00
2022-12-13T21:39:28.020Z,170.88
2022-12-13T21:41:55.511Z,151.82
2022-12-13T21:44:22.803Z,144.27
2022-12-13T21:49:37.691Z,160.38
2022-12-13T21:52:05.014Z,176.90
2022-12-13T21:54:31.985Z,167.07
2022-12-13T21:57:17.405Z,185.52
2022-12-13T21:59:44.473Z,183.68
2022-12-13T22:02:19.978Z,128.75
2022-12-13T22:04:54.388Z,153.55
2022-12-13T22:07:23.664Z,145.10
2022-12-13T22:09:51.557Z,166.82
2022-12-13T22:12:35.626Z,144.93
2022-12-13T22:15:04.720Z,157.90
2022-12-13T22:17:35.723Z,168.77
2022-12-13T22:20:12.317Z,133.73
2022-12-13T22:22:40.693Z,140.77
2022-12-13T22:25:08.671Z,127.18
2022-12-13T22:27:35.927Z,124.03
2022-12-13T22:30:03.921Z,121.65
2022-12-13T22:32:32.226Z,129.70
2022-12-13T22:34:59.761Z,121.75
2022-12-13T22:37:27.439Z,122.82
2022-12-13T22:39:54.469Z,125.90
2022-12-13T22:42:21.827Z,139.85
2022-12-13T22:44:48.916Z,132.43
2022-12-13T22:47:16.141Z,125.47
2022-12-13T22:49:43.132Z,108.88
2022-12-13T22:52:10.494Z,97.05
2022-12-13T22:54:37.555Z,102.43
2022-12-13T22:57:04.740Z,97.70
2022-12-13T22:59:32.068Z,86.47
2022-12-13T23:02:02.529Z,84.75
2022-12-13T23:04:32.540Z,85.35
2022-12-13T23:06:59.760Z,83.10
2022-12-13T23:09:26.921Z,67.65
2022-12-13T23:12:12.763Z,67.40
2022-12-13T23:14:40.091Z,74.80
2022-12-13T23:17:07.881Z,68.55
2022-12-13T23:19:48.850Z,65.78
2022-12-13T23:22:23.590Z,70.30
2022-12-13T23:24:51.942Z,49.17
2022-12-13T23:27:21.083Z,62.63
2022-12-13T23:29:48.623Z,62.10
2022-12-13T23:32:15.670Z,60.80
2022-12-13T23:34:42.909Z,71.82
2022-12-13T23:37:09.930Z,67.43
2022-12-13T23:39:36.927Z,71.60
2022-12-13T23:42:04.097Z,59.25
2022-12-13T23:44:31.159Z,61.65
2022-12-13T23:46:58.191Z,67.47
2022-12-13T23:49:25.331Z,53.20
2022-12-13T23:51:52.522Z,57.63
2022-12-13T23:54:20.328Z,56.65
2022-12-13T23:56:48.027Z,61.13
2022-12-13T23:59:16.473Z,59.65
